createdAt,value
2023-05-25T10:56:08.307Z,21.25
2023-05-25T10:57:08.267Z,21.46
2023-05-25T10:58:08.289Z,21.50
2023-05-25T10:59:08.258Z,21.62
2023-05-25T11:00:08.307Z,21.69
2023-05-25T11:01:08.378Z,21.43
2023-05-25T11:02:09.232Z,21.04
2023-05-25T11:03:08.221Z,21.10
2023-05-25T11:04:08.225Z,21.16
2023-05-25T11:07:37.708Z,20.03
2023-05-25T11:08:37.692Z,20.20
2023-05-25T11:09:37.672Z,20.35
2023-05-25T11:10:37.685Z,20.39
2023-05-25T11:11:37.653Z,20.47
2023-05-25T11:12:37.623Z,20.76
2023-05-25T11:13:39.840Z,21.13
2023-05-25T11:14:37.602Z,20.76
2023-05-25T11:15:37.591Z,21.38
2023-05-25T11:16:37.689Z,21.61
2023-05-25T11:17:37.608Z,21.27
2023-05-25T11:18:37.565Z,21.40
2023-05-25T11:19:37.524Z,21.22
2023-05-25T11:20:37.561Z,21.22
2023-05-25T11:21:37.541Z,21.01
2023-05-25T11:22:37.518Z,20.91
2023-05-25T11:23:37.499Z,21.25
2023-05-25T11:24:37.496Z,21.68
2023-05-25T11:25:37.516Z,21.92
2023-05-25T11:26:37.467Z,22.02
2023-05-25T11:27:37.475Z,22.54
2023-05-25T11:28:37.444Z,22.65
2023-05-25T11:29:37.428Z,22.82
2023-05-25T11:30:37.452Z,21.90
2023-05-25T11:31:41.368Z,21.38
2023-05-25T11:32:37.431Z,21.31
2023-05-25T11:33:37.355Z,20.99
2023-05-25T11:34:37.366Z,20.69
2023-05-25T11:35:37.456Z,20.54
2023-05-25T11:36:37.345Z,20.51
2023-05-25T11:37:37.334Z,20.79
2023-05-25T11:38:37.301Z,21.62
2023-05-25T11:39:37.280Z,21.88
2023-05-25T11:40:40.228Z,21.91
2023-05-25T11:41:37.288Z,22.36
2023-05-25T11:42:37.255Z,22.72
2023-05-25T11:43:37.299Z,22.47
2023-05-25T11:44:37.236Z,22.58
2023-05-25T11:45:37.263Z,23.36
2023-05-25T11:46:37.240Z,23.78
2023-05-25T11:47:38.161Z,23.65
2023-05-25T11:48:37.207Z,23.72
2023-05-25T11:49:37.184Z,23.13
2023-05-25T11:50:37.153Z,23.40
2023-05-25T11:51:37.173Z,23.73
2023-05-25T11:52:37.158Z,24.30
2023-05-25T11:53:37.155Z,24.08
2023-05-25T11:54:37.132Z,24.05
2023-05-25T11:55:37.102Z,23.60
2023-05-25T11:56:37.114Z,23.31
2023-05-25T11:57:37.075Z,23.32
2023-05-25T11:58:37.067Z,23.35
2023-05-25T11:59:37.044Z,22.60
2023-05-25T12:00:37.068Z,21.92
2023-05-25T12:01:37.028Z,21.46
2023-05-25T12:02:37.144Z,21.25
2023-05-25T12:03:37.110Z,21.71
2023-05-25T12:04:37.109Z,21.74
2023-05-25T12:05:37.045Z,21.80
2023-05-25T12:06:37.257Z,21.54
2023-05-25T12:07:36.960Z,20.99
2023-05-25T12:11:42.355Z,20.72
2023-05-25T12:12:42.338Z,21.16
2023-05-25T12:13:42.345Z,21.91
2023-05-25T12:14:42.336Z,22.75
2023-05-25T12:15:42.542Z,23.05
2023-05-25T12:16:42.323Z,23.58
2023-05-25T12:17:42.331Z,24.06
2023-05-25T12:18:42.283Z,24.16
2023-05-25T12:19:42.265Z,23.87
2023-05-25T12:20:42.503Z,23.80
2023-05-25T12:21:42.245Z,22.91
2023-05-25T12:22:42.229Z,22.92
2023-05-25T12:23:42.190Z,22.40
2023-05-25T12:24:42.207Z,22.31
2023-05-25T12:25:50.200Z,22.86
2023-05-25T12:26:42.202Z,22.65
2023-05-25T12:27:42.182Z,22.51
2023-05-25T12:28:42.143Z,22.51
2023-05-25T12:30:08.129Z,21.98
2023-05-25T12:31:08.126Z,22.49
2023-05-25T12:32:08.093Z,22.94
2023-05-25T12:33:08.098Z,23.25
2023-05-25T12:34:08.052Z,22.95
2023-05-25T12:35:08.049Z,22.95
2023-05-25T12:36:08.074Z,22.94
2023-05-25T12:37:08.024Z,22.60
2023-05-25T12:38:07.987Z,22.28
2023-05-25T12:39:07.979Z,21.98
2023-05-25T12:40:15.776Z,21.50
2023-05-25T12:41:08.019Z,21.38
2023-05-25T12:42:07.947Z,21.50
2023-05-25T12:43:07.977Z,21.68
2023-05-25T12:44:07.932Z,22.06
2023-05-25T12:45:07.916Z,22.31
2023-05-25T12:46:08.032Z,22.42
2023-05-25T12:47:07.964Z,22.72
2023-05-25T12:48:07.938Z,22.35
2023-05-25T12:49:07.867Z,22.45
2023-05-25T12:50:07.865Z,22.97
2023-05-25T12:51:07.872Z,22.67
2023-05-25T12:52:07.846Z,22.92
2023-05-25T12:53:07.850Z,23.01
2023-05-25T12:54:07.824Z,23.01
2023-05-25T12:55:07.796Z,22.51
2023-05-25T12:56:07.804Z,22.80
2023-05-25T12:57:07.778Z,23.42
2023-05-25T12:58:07.820Z,23.32
2023-05-25T12:59:07.748Z,23.58
2023-05-25T13:00:07.781Z,24.08
2023-05-25T13:01:07.725Z,23.33
2023-05-25T13:02:07.849Z,22.27
2023-05-25T13:03:07.980Z,22.47
2023-05-25T13:04:07.694Z,23.02
2023-05-25T13:05:07.725Z,23.39
2023-05-25T13:06:07.676Z,23.17
2023-05-25T13:07:07.660Z,22.73
2023-05-25T13:08:07.658Z,22.39
2023-05-25T13:09:07.658Z,22.54
2023-05-25T13:10:07.820Z,23.33
2023-05-25T13:11:07.624Z,22.94
2023-05-25T13:12:07.616Z,21.72
2023-05-25T13:13:07.602Z,21.40
2023-05-25T13:14:07.611Z,21.68
2023-05-25T13:15:07.578Z,21.58
2023-05-25T13:16:07.597Z,22.03
2023-05-25T13:17:07.559Z,22.43
2023-05-25T13:18:07.779Z,22.33
2023-05-25T13:19:07.541Z,22.07
2023-05-25T13:20:07.652Z,22.86
2023-05-25T13:21:07.578Z,22.79
2023-05-25T13:22:07.509Z,22.72
2023-05-25T13:23:07.500Z,23.02
2023-05-25T13:24:07.503Z,23.42
2023-05-25T13:25:07.486Z,22.77
2023-05-25T13:26:07.472Z,22.37
2023-05-25T13:27:07.461Z,22.46
2023-05-25T13:28:07.480Z,22.98
2023-05-25T13:29:07.456Z,23.20
2023-05-25T13:30:07.432Z,22.97
2023-05-25T13:31:07.419Z,23.54
2023-05-25T13:32:07.428Z,23.36
2023-05-25T13:33:07.481Z,22.80
2023-05-25T13:34:07.408Z,23.04
2023-05-25T13:35:07.399Z,22.98
2023-05-25T13:36:07.379Z,23.40
2023-05-25T13:37:07.372Z,23.98
2023-05-25T13:38:07.374Z,23.90
2023-05-25T13:39:07.408Z,23.01
2023-05-25T13:40:07.350Z,22.00
2023-05-25T13:41:07.363Z,22.24
2023-05-25T13:42:07.332Z,22.62
2023-05-25T13:43:07.335Z,22.57
2023-05-25T13:44:07.346Z,22.95
2023-05-25T13:45:07.309Z,23.60
2023-05-25T13:46:08.822Z,22.80
2023-05-25T13:47:07.380Z,22.36
2023-05-25T13:48:07.393Z,22.92
2023-05-25T13:49:07.294Z,23.07
2023-05-25T13:50:07.282Z,22.58
2023-05-25T13:51:07.276Z,22.65
2023-05-25T13:52:07.258Z,23.27
2023-05-25T13:53:07.252Z,23.16
2023-05-25T13:54:07.282Z,22.55
2023-05-25T13:55:07.252Z,22.77
2023-05-25T13:56:07.232Z,23.53
2023-05-25T13:57:07.224Z,23.13
2023-05-25T13:58:07.223Z,23.01
2023-05-25T13:59:07.212Z,22.05
2023-05-25T14:00:07.222Z,22.43
2023-05-25T14:01:07.230Z,23.00
2023-05-25T14:02:07.218Z,22.95
2023-05-25T14:03:07.295Z,22.85
2023-05-25T14:04:07.287Z,22.94
2023-05-25T14:05:07.242Z,22.40
2023-05-25T14:06:07.182Z,22.52
2023-05-25T14:07:07.178Z,22.60
2023-05-25T14:08:07.169Z,22.39
2023-05-25T14:09:07.168Z,23.10
2023-05-25T14:10:07.844Z,22.47
2023-05-25T14:11:07.162Z,23.07
2023-05-25T14:12:07.164Z,23.55
2023-05-25T14:13:07.137Z,23.23
2023-05-25T14:14:11.501Z,23.17
2023-05-25T14:15:07.124Z,23.00
2023-05-25T14:16:07.143Z,23.01
2023-05-25T14:17:07.105Z,22.83
2023-05-25T14:18:07.145Z,23.09
2023-05-25T14:19:07.095Z,23.55
2023-05-25T14:20:07.197Z,24.45
2023-05-25T14:21:07.100Z,24.55
2023-05-25T14:23:07.073Z,24.12
2023-05-25T14:24:07.076Z,23.40
2023-05-25T14:25:07.063Z,23.40
2023-05-25T14:26:07.057Z,23.50
2023-05-25T14:27:07.193Z,23.98
2023-05-25T14:28:07.042Z,24.61
2023-05-25T14:29:07.038Z,23.65
2023-05-25T14:30:07.038Z,22.94
2023-05-25T14:31:07.056Z,22.79
2023-05-25T14:32:07.041Z,23.05
2023-05-25T14:33:07.125Z,22.98
2023-05-25T14:34:07.014Z,23.02
2023-05-25T14:35:07.006Z,23.69
2023-05-25T14:36:07.003Z,23.72
2023-05-25T14:37:06.992Z,24.18
2023-05-25T14:38:07.003Z,24.78
2023-05-25T14:39:06.997Z,24.02
2023-05-25T14:40:06.982Z,23.73
2023-05-25T14:41:06.980Z,23.35
2023-05-25T14:42:06.972Z,23.88
2023-05-25T14:43:06.977Z,24.46
2023-05-25T14:44:06.969Z,25.15
2023-05-25T14:45:08.716Z,25.55
2023-05-25T14:46:06.957Z,25.21
2023-05-25T14:47:07.037Z,25.54
2023-05-25T14:48:16.174Z,25.47
2023-05-25T14:49:06.947Z,25.64
2023-05-25T14:50:06.936Z,25.69
2023-05-25T14:51:06.951Z,26.18
2023-05-25T14:52:06.937Z,25.65
2023-05-25T14:53:06.916Z,25.03
2023-05-25T14:54:06.930Z,24.80
2023-05-25T14:55:06.909Z,25.27
2023-05-25T14:56:08.978Z,24.85
2023-05-25T14:57:06.913Z,24.28
2023-05-25T14:58:06.891Z,24.67
2023-05-25T14:59:06.897Z,24.64
2023-05-25T15:00:06.882Z,24.80
2023-05-25T15:01:06.874Z,24.47
2023-05-25T15:02:06.937Z,24.15
2023-05-25T15:03:06.932Z,24.39
2023-05-25T15:04:06.972Z,24.65
2023-05-25T15:05:06.859Z,24.88
2023-05-25T15:06:06.853Z,23.80
2023-05-25T15:07:06.861Z,24.15
2023-05-25T15:08:06.844Z,23.57
2023-05-25T15:09:06.862Z,23.22
2023-05-25T15:10:06.832Z,22.88
2023-05-25T15:11:06.827Z,22.80
2023-05-25T15:12:06.829Z,22.85
2023-05-25T15:13:06.817Z,22.68
2023-05-25T15:14:06.826Z,22.92
2023-05-25T15:15:06.819Z,22.85
2023-05-25T15:16:06.825Z,22.17
2023-05-25T15:17:06.798Z,21.96
2023-05-25T15:18:06.831Z,21.58
2023-05-25T15:19:07.302Z,22.09
2023-05-25T15:20:06.816Z,21.98
2023-05-25T15:21:06.781Z,22.42
2023-05-25T15:22:06.780Z,21.90
2023-05-25T15:23:06.773Z,22.55
2023-05-25T15:24:06.781Z,22.52
2023-05-25T15:25:06.768Z,22.31
2023-05-25T15:26:06.772Z,22.91
2023-05-25T15:27:06.759Z,22.94
2023-05-25T15:28:06.759Z,23.20
2023-05-25T15:29:06.803Z,23.16
2023-05-25T15:30:06.752Z,23.38
2023-05-25T15:31:06.746Z,23.12
2023-05-25T15:32:06.768Z,23.85
2023-05-25T15:33:06.796Z,23.87
2023-05-25T15:34:06.734Z,24.31
2023-05-25T15:35:06.717Z,24.65
2023-05-25T15:36:06.729Z,24.77
2023-05-25T15:37:06.706Z,23.88
2023-05-25T15:38:06.720Z,23.33
2023-05-25T15:39:06.694Z,23.75
2023-05-25T15:40:06.706Z,23.90
2023-05-25T15:41:06.693Z,23.73
2023-05-25T15:42:06.697Z,22.97
2023-05-25T15:43:06.694Z,22.76
2023-05-25T15:44:06.678Z,23.13
2023-05-25T15:45:06.670Z,23.84
2023-05-25T15:46:06.700Z,23.35
2023-05-25T15:47:06.679Z,23.47
2023-05-25T15:48:06.679Z,23.51
2023-05-25T15:49:06.653Z,24.50
2023-05-25T15:50:06.651Z,24.73
2023-05-25T15:51:06.643Z,24.00
2023-05-25T15:52:06.677Z,23.46
2023-05-25T15:53:06.642Z,23.28
2023-05-25T15:54:06.650Z,23.27
2023-05-25T15:55:06.626Z,23.43
2023-05-25T15:56:06.633Z,23.70
2023-05-25T15:57:06.645Z,24.03
2023-05-25T15:58:06.623Z,24.50
2023-05-25T15:59:06.613Z,23.70
2023-05-25T16:00:06.609Z,23.20
2023-05-25T16:01:06.654Z,23.36
2023-05-25T16:02:06.867Z,23.43
2023-05-25T16:03:06.624Z,22.68
2023-05-25T16:04:06.633Z,23.38
2023-05-25T16:05:06.587Z,23.69
2023-05-25T16:06:06.612Z,23.75
2023-05-25T16:07:06.574Z,23.91
2023-05-25T16:08:06.587Z,23.54
2023-05-25T16:09:06.592Z,23.32
2023-05-25T16:10:06.561Z,23.70
2023-05-25T16:11:06.577Z,23.83
2023-05-25T16:12:06.556Z,23.32
2023-05-25T16:13:06.558Z,23.28
2023-05-25T16:14:06.542Z,23.33
2023-05-25T16:15:06.538Z,22.92
2023-05-25T16:16:06.546Z,23.51
2023-05-25T16:17:06.530Z,23.28
2023-05-25T16:18:06.542Z,23.94
2023-05-25T16:19:06.572Z,23.91
2023-05-25T16:20:06.567Z,24.53
2023-05-25T16:21:06.521Z,24.20
2023-05-25T16:22:06.506Z,23.73
2023-05-25T16:23:06.499Z,22.98
2023-05-25T16:24:06.514Z,23.09
2023-05-25T16:25:06.497Z,22.54
2023-05-25T16:26:06.496Z,22.65
2023-05-25T16:27:06.521Z,23.07
2023-05-25T16:28:06.486Z,23.27
2023-05-25T16:29:06.493Z,23.50
2023-05-25T16:30:06.487Z,23.94
2023-05-25T16:31:06.470Z,22.82
2023-05-25T16:32:06.539Z,22.64
2023-05-25T16:33:06.520Z,23.33
2023-05-25T16:34:06.480Z,24.09
2023-05-25T16:35:06.450Z,23.65
2023-05-25T16:36:06.456Z,23.32
2023-05-25T16:37:06.451Z,22.88
2023-05-25T16:38:06.446Z,22.73
2023-05-25T16:39:06.446Z,22.22
2023-05-25T16:40:06.450Z,22.10
2023-05-25T16:41:06.427Z,22.09
2023-05-25T16:42:06.424Z,21.77
2023-05-25T16:43:06.413Z,21.56
2023-05-25T16:44:06.445Z,21.88
2023-05-25T16:45:06.404Z,22.03
2023-05-25T16:46:06.466Z,21.72
2023-05-25T16:47:06.392Z,21.88
2023-05-25T16:48:06.478Z,21.96
2023-05-25T16:49:06.383Z,21.94
2023-05-25T16:50:06.415Z,22.51
2023-05-25T16:51:06.370Z,21.67
2023-05-25T16:52:06.405Z,21.42
2023-05-25T16:53:06.402Z,21.40
2023-05-25T16:54:06.417Z,21.19
2023-05-25T16:55:06.361Z,21.50
2023-05-25T16:56:06.364Z,21.84
2023-05-25T16:57:06.365Z,22.15
2023-05-25T16:58:06.380Z,22.02
2023-05-25T16:59:06.330Z,22.30
2023-05-25T17:00:06.353Z,21.91
2023-05-25T17:01:06.360Z,21.44
2023-05-25T17:02:06.366Z,21.53
2023-05-25T17:03:06.418Z,21.52
2023-05-25T17:04:06.476Z,21.42
2023-05-25T17:05:06.322Z,21.21
2023-05-25T17:06:06.304Z,20.59
2023-05-25T17:07:06.305Z,20.33
2023-05-25T17:08:06.415Z,20.42
2023-05-25T17:09:06.279Z,20.39
2023-05-25T17:10:06.280Z,20.41
2023-05-25T17:11:06.279Z,20.48
2023-05-25T17:12:06.266Z,20.11
2023-05-25T17:13:06.300Z,19.96
2023-05-25T17:14:06.259Z,19.92
2023-05-25T17:15:06.259Z,19.95
2023-05-25T17:16:06.289Z,20.21
2023-05-25T17:17:06.242Z,20.20
2023-05-25T17:18:06.256Z,20.42
2023-05-25T17:19:06.215Z,20.73
2023-05-25T17:20:06.240Z,20.67
2023-05-25T17:21:06.288Z,20.47
2023-05-25T17:22:06.195Z,20.21
2023-05-25T17:23:06.187Z,19.95
2023-05-25T17:24:06.187Z,19.87
2023-05-25T17:25:49.017Z,19.73
